sensor_id;sensor_type;location;lat;lon;timestamp;P1;durP1;ratioP1;P2;durP2;ratioP2
76125;SDS011;65174;48.138;21.002;2024-03-22T00:01:45;24.05;;;11.35;;
76125;SDS011;65174;48.138;21.002;2024-03-22T00:04:46;23.13;;;9.55;;
76125;SDS011;65174;48.138;21.002;2024-03-22T00:07:47;27.50;;;11.50;;
76125;SDS011;65174;48.138;21.002;2024-03-22T00:10:48;22.77;;;10.65;;
76125;SDS011;65174;48.138;21.002;2024-03-22T00:13:49;28.80;;;11.88;;
76125;SDS011;65174;48.138;21.002;2024-03-22T00:16:50;25.00;;;10.55;;
76125;SDS011;65174;48.138;21.002;2024-03-22T00:19:51;22.63;;;10.83;;
76125;SDS011;65174;48.138;21.002;2024-03-22T00:22:52;22.63;;;10.73;;
76125;SDS011;65174;48.138;21.002;2024-03-22T00:25:53;24.23;;;11.23;;
76125;SDS011;65174;48.138;21.002;2024-03-22T00:28:54;25.40;;;10.80;;
76125;SDS011;65174;48.138;21.002;2024-03-22T00:31:55;19.17;;;9.20;;
76125;SDS011;65174;48.138;21.002;2024-03-22T00:34:56;19.35;;;8.90;;
76125;SDS011;65174;48.138;21.002;2024-03-22T00:37:57;18.17;;;8.68;;
76125;SDS011;65174;48.138;21.002;2024-03-22T00:40:58;14.85;;;7.32;;
76125;SDS011;65174;48.138;21.002;2024-03-22T00:43:59;19.67;;;8.00;;
76125;SDS011;65174;48.138;21.002;2024-03-22T00:47:00;18.67;;;8.35;;
76125;SDS011;65174;48.138;21.002;2024-03-22T00:50:04;15.85;;;7.00;;
76125;SDS011;65174;48.138;21.002;2024-03-22T00:53:08;10.93;;;6.75;;
76125;SDS011;65174;48.138;21.002;2024-03-22T00:56:10;13.15;;;6.90;;
76125;SDS011;65174;48.138;21.002;2024-03-22T00:59:11;14.97;;;7.27;;
76125;SDS011;65174;48.138;21.002;2024-03-22T01:02:12;14.40;;;6.88;;
76125;SDS011;65174;48.138;21.002;2024-03-22T01:05:13;14.27;;;8.13;;
76125;SDS011;65174;48.138;21.002;2024-03-22T01:08:15;12.70;;;7.50;;
76125;SDS011;65174;48.138;21.002;2024-03-22T01:11:16;16.53;;;8.43;;
76125;SDS011;65174;48.138;21.002;2024-03-22T01:14:17;13.00;;;7.20;;
76125;SDS011;65174;48.138;21.002;2024-03-22T01:17:18;13.15;;;7.22;;
76125;SDS011;65174;48.138;21.002;2024-03-22T01:20:19;22.93;;;8.57;;
76125;SDS011;65174;48.138;21.002;2024-03-22T01:23:20;18.20;;;7.63;;
76125;SDS011;65174;48.138;21.002;2024-03-22T01:26:21;20.17;;;8.20;;
76125;SDS011;65174;48.138;21.002;2024-03-22T01:29:22;15.35;;;7.72;;
76125;SDS011;65174;48.138;21.002;2024-03-22T01:32:23;15.03;;;7.30;;
76125;SDS011;65174;48.138;21.002;2024-03-22T01:35:24;17.55;;;9.10;;
76125;SDS011;65174;48.138;21.002;2024-03-22T01:38:25;18.63;;;8.50;;
76125;SDS011;65174;48.138;21.002;2024-03-22T01:41:25;15.23;;;7.83;;
76125;SDS011;65174;48.138;21.002;2024-03-22T01:44:28;18.83;;;8.65;;
76125;SDS011;65174;48.138;21.002;2024-03-22T01:47:29;20.50;;;9.25;;
76125;SDS011;65174;48.138;21.002;2024-03-22T01:50:30;15.73;;;8.77;;
76125;SDS011;65174;48.138;21.002;2024-03-22T01:53:32;15.40;;;8.00;;
76125;SDS011;65174;48.138;21.002;2024-03-22T01:56:38;15.13;;;8.23;;
76125;SDS011;65174;48.138;21.002;2024-03-22T01:59:40;20.27;;;9.23;;
76125;SDS011;65174;48.138;21.002;2024-03-22T02:02:41;18.88;;;9.77;;
76125;SDS011;65174;48.138;21.002;2024-03-22T02:05:43;21.10;;;8.82;;
76125;SDS011;65174;48.138;21.002;2024-03-22T02:08:43;17.73;;;7.87;;
76125;SDS011;65174;48.138;21.002;2024-03-22T02:11:44;17.83;;;8.48;;
76125;SDS011;65174;48.138;21.002;2024-03-22T02:14:46;16.85;;;8.43;;
76125;SDS011;65174;48.138;21.002;2024-03-22T02:17:46;16.00;;;7.87;;
76125;SDS011;65174;48.138;21.002;2024-03-22T02:20:47;16.57;;;8.30;;
76125;SDS011;65174;48.138;21.002;2024-03-22T02:23:48;16.42;;;8.77;;
76125;SDS011;65174;48.138;21.002;2024-03-22T02:26:49;20.52;;;9.25;;
76125;SDS011;65174;48.138;21.002;2024-03-22T02:29:50;15.47;;;7.83;;
76125;SDS011;65174;48.138;21.002;2024-03-22T02:32:51;21.02;;;8.65;;
76125;SDS011;65174;48.138;21.002;2024-03-22T02:35:52;15.18;;;8.32;;
76125;SDS011;65174;48.138;21.002;2024-03-22T02:38:53;16.40;;;8.03;;
76125;SDS011;65174;48.138;21.002;2024-03-22T02:41:54;19.13;;;9.02;;
76125;SDS011;65174;48.138;21.002;2024-03-22T02:44:56;18.40;;;8.80;;
76125;SDS011;65174;48.138;21.002;2024-03-22T02:47:57;20.52;;;9.50;;
76125;SDS011;65174;48.138;21.002;2024-03-22T02:50:58;17.93;;;9.33;;
76125;SDS011;65174;48.138;21.002;2024-03-22T02:53:59;19.13;;;9.00;;
76125;SDS011;65174;48.138;21.002;2024-03-22T02:56:59;17.20;;;8.70;;
76125;SDS011;65174;48.138;21.002;2024-03-22T03:00:02;18.25;;;8.15;;
76125;SDS011;65174;48.138;21.002;2024-03-22T03:03:04;21.17;;;9.70;;
76125;SDS011;65174;48.138;21.002;2024-03-22T03:06:05;18.48;;;8.98;;
76125;SDS011;65174;48.138;21.002;2024-03-22T03:09:06;15.65;;;8.35;;
76125;SDS011;65174;48.138;21.002;2024-03-22T03:12:11;18.48;;;8.52;;
76125;SDS011;65174;48.138;21.002;2024-03-22T03:15:12;18.83;;;9.03;;
76125;SDS011;65174;48.138;21.002;2024-03-22T03:18:13;16.52;;;8.80;;
76125;SDS011;65174;48.138;21.002;2024-03-22T03:21:14;18.77;;;9.27;;
76125;SDS011;65174;48.138;21.002;2024-03-22T03:24:14;20.67;;;8.80;;
76125;SDS011;65174;48.138;21.002;2024-03-22T03:27:15;16.20;;;8.87;;
76125;SDS011;65174;48.138;21.002;2024-03-22T03:30:16;18.85;;;8.35;;
76125;SDS011;65174;48.138;21.002;2024-03-22T03:33:17;23.63;;;8.73;;
76125;SDS011;65174;48.138;21.002;2024-03-22T03:36:18;17.10;;;8.87;;
76125;SDS011;65174;48.138;21.002;2024-03-22T03:39:19;19.45;;;8.48;;
76125;SDS011;65174;48.138;21.002;2024-03-22T03:42:21;18.45;;;9.32;;
76125;SDS011;65174;48.138;21.002;2024-03-22T03:45:22;16.75;;;8.70;;
76125;SDS011;65174;48.138;21.002;2024-03-22T03:48:23;19.33;;;9.03;;
76125;SDS011;65174;48.138;21.002;2024-03-22T03:51:24;18.33;;;9.57;;
76125;SDS011;65174;48.138;21.002;2024-03-22T03:54:25;19.48;;;9.95;;
76125;SDS011;65174;48.138;21.002;2024-03-22T03:57:26;22.00;;;9.27;;
76125;SDS011;65174;48.138;21.002;2024-03-22T04:00:27;18.77;;;9.20;;
76125;SDS011;65174;48.138;21.002;2024-03-22T04:03:28;23.50;;;9.25;;
76125;SDS011;65174;48.138;21.002;2024-03-22T04:06:29;19.73;;;10.40;;
76125;SDS011;65174;48.138;21.002;2024-03-22T04:09:30;23.33;;;11.13;;
76125;SDS011;65174;48.138;21.002;2024-03-22T04:12:31;27.15;;;11.65;;
76125;SDS011;65174;48.138;21.002;2024-03-22T04:15:35;20.48;;;11.35;;
76125;SDS011;65174;48.138;21.002;2024-03-22T04:18:36;24.23;;;11.00;;
76125;SDS011;65174;48.138;21.002;2024-03-22T04:21:37;19.45;;;10.57;;
76125;SDS011;65174;48.138;21.002;2024-03-22T04:24:38;20.95;;;11.27;;
76125;SDS011;65174;48.138;21.002;2024-03-22T04:27:39;20.30;;;10.25;;
76125;SDS011;65174;48.138;21.002;2024-03-22T04:30:40;23.03;;;10.80;;
76125;SDS011;65174;48.138;21.002;2024-03-22T04:33:41;18.65;;;9.70;;
76125;SDS011;65174;48.138;21.002;2024-03-22T04:36:42;21.10;;;10.95;;
76125;SDS011;65174;48.138;21.002;2024-03-22T04:39:45;18.05;;;11.00;;
76125;SDS011;65174;48.138;21.002;2024-03-22T04:42:46;26.20;;;12.33;;
76125;SDS011;65174;48.138;21.002;2024-03-22T04:45:47;25.38;;;11.63;;
76125;SDS011;65174;48.138;21.002;2024-03-22T04:48:48;24.13;;;10.70;;
76125;SDS011;65174;48.138;21.002;2024-03-22T04:51:49;22.15;;;12.23;;
76125;SDS011;65174;48.138;21.002;2024-03-22T04:54:50;20.63;;;11.07;;
76125;SDS011;65174;48.138;21.002;2024-03-22T04:57:51;22.13;;;11.23;;
76125;SDS011;65174;48.138;21.002;2024-03-22T05:00:56;21.20;;;11.68;;
76125;SDS011;65174;48.138;21.002;2024-03-22T05:42:06;20.98;;;10.80;;
76125;SDS011;65174;48.138;21.002;2024-03-22T05:45:07;20.57;;;10.23;;
76125;SDS011;65174;48.138;21.002;2024-03-22T05:48:08;23.73;;;10.43;;
76125;SDS011;65174;48.138;21.002;2024-03-22T05:51:09;24.02;;;11.00;;
76125;SDS011;65174;48.138;21.002;2024-03-22T05:54:10;22.35;;;11.15;;
76125;SDS011;65174;48.138;21.002;2024-03-22T05:57:11;24.00;;;11.40;;
76125;SDS011;65174;48.138;21.002;2024-03-22T06:00:12;19.03;;;10.73;;
76125;SDS011;65174;48.138;21.002;2024-03-22T06:03:14;22.50;;;10.63;;
76125;SDS011;65174;48.138;21.002;2024-03-22T06:06:17;26.20;;;12.00;;
76125;SDS011;65174;48.138;21.002;2024-03-22T06:09:18;19.20;;;10.50;;
76125;SDS011;65174;48.138;21.002;2024-03-22T06:12:34;29.77;;;12.98;;
76125;SDS011;65174;48.138;21.002;2024-03-22T06:15:36;26.07;;;12.13;;
76125;SDS011;65174;48.138;21.002;2024-03-22T06:18:37;25.25;;;11.52;;
76125;SDS011;65174;48.138;21.002;2024-03-22T06:21:38;28.67;;;12.25;;
76125;SDS011;65174;48.138;21.002;2024-03-22T06:24:39;23.35;;;11.93;;
76125;SDS011;65174;48.138;21.002;2024-03-22T06:27:40;21.53;;;11.13;;
76125;SDS011;65174;48.138;21.002;2024-03-22T06:30:41;22.45;;;10.93;;
76125;SDS011;65174;48.138;21.002;2024-03-22T06:33:42;26.05;;;12.05;;
76125;SDS011;65174;48.138;21.002;2024-03-22T06:36:43;25.40;;;12.05;;
76125;SDS011;65174;48.138;21.002;2024-03-22T06:39:44;23.60;;;13.20;;
76125;SDS011;65174;48.138;21.002;2024-03-22T06:42:45;25.27;;;11.57;;
76125;SDS011;65174;48.138;21.002;2024-03-22T06:45:46;24.73;;;12.32;;
76125;SDS011;65174;48.138;21.002;2024-03-22T06:48:48;24.38;;;12.50;;
76125;SDS011;65174;48.138;21.002;2024-03-22T06:51:49;26.80;;;12.23;;
76125;SDS011;65174;48.138;21.002;2024-03-22T06:58:51;23.45;;;11.52;;
76125;SDS011;65174;48.138;21.002;2024-03-22T07:01:52;25.95;;;11.38;;
76125;SDS011;65174;48.138;21.002;2024-03-22T07:04:53;23.40;;;11.55;;
76125;SDS011;65174;48.138;21.002;2024-03-22T07:07:54;20.37;;;11.33;;
76125;SDS011;65174;48.138;21.002;2024-03-22T07:10:58;24.38;;;11.38;;
76125;SDS011;65174;48.138;21.002;2024-03-22T07:14:00;20.98;;;11.15;;
76125;SDS011;65174;48.138;21.002;2024-03-22T07:17:01;20.65;;;10.40;;
76125;SDS011;65174;48.138;21.002;2024-03-22T07:20:02;19.17;;;10.33;;
76125;SDS011;65174;48.138;21.002;2024-03-22T07:23:08;22.15;;;11.30;;
76125;SDS011;65174;48.138;21.002;2024-03-22T07:26:09;19.92;;;11.45;;
76125;SDS011;65174;48.138;21.002;2024-03-22T07:29:11;21.15;;;11.15;;
76125;SDS011;65174;48.138;21.002;2024-03-22T07:32:11;20.00;;;10.97;;
76125;SDS011;65174;48.138;21.002;2024-03-22T07:35:12;24.50;;;11.57;;
76125;SDS011;65174;48.138;21.002;2024-03-22T07:38:14;25.50;;;11.73;;
76125;SDS011;65174;48.138;21.002;2024-03-22T07:41:15;20.20;;;10.68;;
76125;SDS011;65174;48.138;21.002;2024-03-22T07:44:16;22.60;;;10.03;;
76125;SDS011;65174;48.138;21.002;2024-03-22T07:47:25;22.27;;;10.63;;
76125;SDS011;65174;48.138;21.002;2024-03-22T07:50:26;20.90;;;10.18;;
76125;SDS011;65174;48.138;21.002;2024-03-22T07:53:27;18.35;;;10.35;;
76125;SDS011;65174;48.138;21.002;2024-03-22T07:56:28;21.10;;;11.20;;
76125;SDS011;65174;48.138;21.002;2024-03-22T07:59:29;19.07;;;9.50;;
76125;SDS011;65174;48.138;21.002;2024-03-22T08:02:30;19.70;;;9.90;;
76125;SDS011;65174;48.138;21.002;2024-03-22T08:05:31;21.05;;;10.57;;
76125;SDS011;65174;48.138;21.002;2024-03-22T08:08:32;17.67;;;9.55;;
76125;SDS011;65174;48.138;21.002;2024-03-22T08:11:33;22.50;;;10.17;;
76125;SDS011;65174;48.138;21.002;2024-03-22T08:14:35;20.15;;;9.55;;
76125;SDS011;65174;48.138;21.002;2024-03-22T08:17:37;23.05;;;10.48;;
76125;SDS011;65174;48.138;21.002;2024-03-22T08:20:37;22.17;;;10.48;;
76125;SDS011;65174;48.138;21.002;2024-03-22T08:23:39;24.27;;;10.73;;
76125;SDS011;65174;48.138;21.002;2024-03-22T08:26:40;18.63;;;10.45;;
76125;SDS011;65174;48.138;21.002;2024-03-22T08:29:45;19.50;;;11.23;;
76125;SDS011;65174;48.138;21.002;2024-03-22T08:32:46;23.00;;;11.82;;
76125;SDS011;65174;48.138;21.002;2024-03-22T08:35:51;24.65;;;11.05;;
76125;SDS011;65174;48.138;21.002;2024-03-22T08:38:51;26.20;;;13.30;;
76125;SDS011;65174;48.138;21.002;2024-03-22T08:41:52;21.45;;;11.75;;
76125;SDS011;65174;48.138;21.002;2024-03-22T08:44:56;30.48;;;12.75;;
76125;SDS011;65174;48.138;21.002;2024-03-22T08:47:57;24.63;;;12.93;;
76125;SDS011;65174;48.138;21.002;2024-03-22T08:50:58;26.30;;;12.83;;
76125;SDS011;65174;48.138;21.002;2024-03-22T08:53:59;22.23;;;12.55;;
76125;SDS011;65174;48.138;21.002;2024-03-22T08:57:01;23.65;;;12.23;;
76125;SDS011;65174;48.138;21.002;2024-03-22T09:00:02;25.80;;;11.48;;
76125;SDS011;65174;48.138;21.002;2024-03-22T09:03:04;21.23;;;12.17;;
76125;SDS011;65174;48.138;21.002;2024-03-22T09:06:05;24.38;;;11.75;;
76125;SDS011;65174;48.138;21.002;2024-03-22T09:09:06;23.77;;;11.65;;
76125;SDS011;65174;48.138;21.002;2024-03-22T09:12:09;24.33;;;11.80;;
76125;SDS011;65174;48.138;21.002;2024-03-22T09:15:11;24.85;;;11.48;;
76125;SDS011;65174;48.138;21.002;2024-03-22T09:18:13;24.17;;;12.17;;
76125;SDS011;65174;48.138;21.002;2024-03-22T09:21:29;22.50;;;11.40;;
76125;SDS011;65174;48.138;21.002;2024-03-22T09:24:32;21.80;;;11.57;;
76125;SDS011;65174;48.138;21.002;2024-03-22T09:27:33;20.88;;;11.75;;
76125;SDS011;65174;48.138;21.002;2024-03-22T09:30:38;24.92;;;11.43;;
76125;SDS011;65174;48.138;21.002;2024-03-22T09:33:40;24.07;;;12.57;;
76125;SDS011;65174;48.138;21.002;2024-03-22T09:36:41;25.60;;;12.25;;
76125;SDS011;65174;48.138;21.002;2024-03-22T10:05:02;29.95;;;12.65;;
76125;SDS011;65174;48.138;21.002;2024-03-22T10:08:05;24.38;;;11.43;;
76125;SDS011;65174;48.138;21.002;2024-03-22T10:11:11;24.13;;;11.18;;
76125;SDS011;65174;48.138;21.002;2024-03-22T10:14:12;25.27;;;12.13;;
76125;SDS011;65174;48.138;21.002;2024-03-22T10:17:13;22.75;;;11.50;;
76125;SDS011;65174;48.138;21.002;2024-03-22T10:20:14;26.55;;;12.63;;
76125;SDS011;65174;48.138;21.002;2024-03-22T10:23:15;23.38;;;12.90;;
76125;SDS011;65174;48.138;21.002;2024-03-22T10:26:16;24.27;;;12.67;;
76125;SDS011;65174;48.138;21.002;2024-03-22T10:29:18;29.50;;;14.18;;
76125;SDS011;65174;48.138;21.002;2024-03-22T10:33:49;28.05;;;12.75;;
76125;SDS011;65174;48.138;21.002;2024-03-22T10:38:55;29.75;;;11.07;;
76125;SDS011;65174;48.138;21.002;2024-03-22T10:43:12;21.60;;;10.70;;
76125;SDS011;65174;48.138;21.002;2024-03-22T10:47:36;23.03;;;11.43;;
76125;SDS011;65174;48.138;21.002;2024-03-22T10:57:14;22.35;;;10.93;;
76125;SDS011;65174;48.138;21.002;2024-03-22T11:02:19;20.75;;;11.90;;
76125;SDS011;65174;48.138;21.002;2024-03-22T15:09:18;21.58;;;12.07;;
76125;SDS011;65174;48.138;21.002;2024-03-22T15:12:19;25.07;;;12.73;;
76125;SDS011;65174;48.138;21.002;2024-03-22T15:15:20;28.50;;;12.77;;
76125;SDS011;65174;48.138;21.002;2024-03-22T15:18:21;21.95;;;13.60;;
76125;SDS011;65174;48.138;21.002;2024-03-22T15:21:23;24.05;;;12.48;;
76125;SDS011;65174;48.138;21.002;2024-03-22T15:24:23;27.20;;;13.40;;
76125;SDS011;65174;48.138;21.002;2024-03-22T15:27:25;23.88;;;11.88;;
76125;SDS011;65174;48.138;21.002;2024-03-22T15:30:28;23.75;;;13.23;;
76125;SDS011;65174;48.138;21.002;2024-03-22T15:33:29;22.67;;;12.38;;
76125;SDS011;65174;48.138;21.002;2024-03-22T15:36:31;25.67;;;11.50;;
76125;SDS011;65174;48.138;21.002;2024-03-22T15:39:32;23.15;;;11.93;;
76125;SDS011;65174;48.138;21.002;2024-03-22T15:42:34;28.08;;;12.95;;
76125;SDS011;65174;48.138;21.002;2024-03-22T15:45:35;26.45;;;12.10;;
76125;SDS011;65174;48.138;21.002;2024-03-22T15:48:39;21.92;;;12.45;;
76125;SDS011;65174;48.138;21.002;2024-03-22T15:51:40;24.37;;;12.23;;
76125;SDS011;65174;48.138;21.002;2024-03-22T15:54:41;26.38;;;12.88;;
76125;SDS011;65174;48.138;21.002;2024-03-22T15:57:42;20.77;;;11.52;;
76125;SDS011;65174;48.138;21.002;2024-03-22T16:00:44;23.17;;;11.98;;
76125;SDS011;65174;48.138;21.002;2024-03-22T16:03:46;18.97;;;10.27;;
76125;SDS011;65174;48.138;21.002;2024-03-22T16:06:47;23.00;;;11.98;;
76125;SDS011;65174;48.138;21.002;2024-03-22T16:09:48;22.20;;;11.43;;
76125;SDS011;65174;48.138;21.002;2024-03-22T16:12:49;21.67;;;11.25;;
76125;SDS011;65174;48.138;21.002;2024-03-22T16:15:50;21.75;;;11.52;;
76125;SDS011;65174;48.138;21.002;2024-03-22T16:18:52;23.27;;;11.47;;
76125;SDS011;65174;48.138;21.002;2024-03-22T16:21:53;27.10;;;11.98;;
76125;SDS011;65174;48.138;21.002;2024-03-22T16:24:54;25.63;;;12.27;;
76125;SDS011;65174;48.138;21.002;2024-03-22T16:27:55;23.67;;;12.80;;
76125;SDS011;65174;48.138;21.002;2024-03-22T16:30:57;21.07;;;10.97;;
76125;SDS011;65174;48.138;21.002;2024-03-22T16:33:58;21.38;;;11.00;;
76125;SDS011;65174;48.138;21.002;2024-03-22T16:36:59;21.13;;;11.18;;
76125;SDS011;65174;48.138;21.002;2024-03-22T16:40:00;26.80;;;11.50;;
76125;SDS011;65174;48.138;21.002;2024-03-22T16:43:00;26.50;;;12.70;;
76125;SDS011;65174;48.138;21.002;2024-03-22T16:46:02;26.98;;;13.20;;
76125;SDS011;65174;48.138;21.002;2024-03-22T16:49:03;29.77;;;12.32;;
76125;SDS011;65174;48.138;21.002;2024-03-22T16:52:04;23.03;;;11.97;;
76125;SDS011;65174;48.138;21.002;2024-03-22T16:55:06;26.38;;;12.75;;
76125;SDS011;65174;48.138;21.002;2024-03-22T16:58:12;26.58;;;12.65;;
76125;SDS011;65174;48.138;21.002;2024-03-22T17:01:13;24.98;;;12.68;;
76125;SDS011;65174;48.138;21.002;2024-03-22T17:04:14;26.47;;;12.80;;
76125;SDS011;65174;48.138;21.002;2024-03-22T17:07:15;27.35;;;12.30;;
76125;SDS011;65174;48.138;21.002;2024-03-22T17:10:16;25.10;;;12.38;;
76125;SDS011;65174;48.138;21.002;2024-03-22T17:13:17;23.15;;;11.98;;
76125;SDS011;65174;48.138;21.002;2024-03-22T17:16:18;24.13;;;12.20;;
76125;SDS011;65174;48.138;21.002;2024-03-22T17:19:19;25.08;;;11.70;;
76125;SDS011;65174;48.138;21.002;2024-03-22T17:22:21;23.30;;;11.60;;
76125;SDS011;65174;48.138;21.002;2024-03-22T17:25:22;26.70;;;12.55;;
76125;SDS011;65174;48.138;21.002;2024-03-22T17:28:23;30.98;;;12.52;;
76125;SDS011;65174;48.138;21.002;2024-03-22T17:31:24;25.47;;;11.93;;
76125;SDS011;65174;48.138;21.002;2024-03-22T17:34:25;21.90;;;11.80;;
76125;SDS011;65174;48.138;21.002;2024-03-22T17:37:26;25.70;;;12.48;;
76125;SDS011;65174;48.138;21.002;2024-03-22T17:40:28;22.30;;;12.38;;
76125;SDS011;65174;48.138;21.002;2024-03-22T17:43:29;27.10;;;11.73;;
76125;SDS011;65174;48.138;21.002;2024-03-22T17:46:30;22.67;;;11.80;;
76125;SDS011;65174;48.138;21.002;2024-03-22T17:49:31;23.20;;;12.57;;
76125;SDS011;65174;48.138;21.002;2024-03-22T17:52:33;24.70;;;13.27;;
76125;SDS011;65174;48.138;21.002;2024-03-22T17:55:34;31.50;;;14.55;;
76125;SDS011;65174;48.138;21.002;2024-03-22T17:58:35;28.27;;;14.32;;
76125;SDS011;65174;48.138;21.002;2024-03-22T18:01:36;25.93;;;13.00;;
76125;SDS011;65174;48.138;21.002;2024-03-22T18:04:37;26.80;;;14.38;;
76125;SDS011;65174;48.138;21.002;2024-03-22T18:07:38;29.65;;;15.32;;
76125;SDS011;65174;48.138;21.002;2024-03-22T18:10:39;24.83;;;12.83;;
76125;SDS011;65174;48.138;21.002;2024-03-22T18:13:40;24.63;;;12.73;;
76125;SDS011;65174;48.138;21.002;2024-03-22T18:16:42;27.45;;;12.30;;
76125;SDS011;65174;48.138;21.002;2024-03-22T18:19:43;22.88;;;12.07;;
76125;SDS011;65174;48.138;21.002;2024-03-22T18:22:45;25.10;;;12.38;;
76125;SDS011;65174;48.138;21.002;2024-03-22T18:25:46;23.33;;;12.80;;
76125;SDS011;65174;48.138;21.002;2024-03-22T18:28:48;24.33;;;12.23;;
76125;SDS011;65174;48.138;21.002;2024-03-22T18:31:49;23.65;;;12.45;;
76125;SDS011;65174;48.138;21.002;2024-03-22T18:34:51;23.92;;;12.10;;
76125;SDS011;65174;48.138;21.002;2024-03-22T18:37:51;21.83;;;12.60;;
76125;SDS011;65174;48.138;21.002;2024-03-22T18:40:53;21.00;;;11.33;;
76125;SDS011;65174;48.138;21.002;2024-03-22T18:43:54;23.00;;;12.05;;
76125;SDS011;65174;48.138;21.002;2024-03-22T18:46:56;24.17;;;12.55;;
76125;SDS011;65174;48.138;21.002;2024-03-22T18:49:56;24.05;;;12.05;;
76125;SDS011;65174;48.138;21.002;2024-03-22T18:52:58;22.70;;;12.38;;
76125;SDS011;65174;48.138;21.002;2024-03-22T18:55:59;22.37;;;12.33;;
76125;SDS011;65174;48.138;21.002;2024-03-22T18:59:01;24.95;;;12.68;;
76125;SDS011;65174;48.138;21.002;2024-03-22T19:02:02;27.08;;;11.90;;
76125;SDS011;65174;48.138;21.002;2024-03-22T19:05:03;21.35;;;11.95;;
76125;SDS011;65174;48.138;21.002;2024-03-22T19:08:05;21.83;;;12.40;;
76125;SDS011;65174;48.138;21.002;2024-03-22T19:11:09;23.33;;;11.37;;
76125;SDS011;65174;48.138;21.002;2024-03-22T19:14:10;23.30;;;12.38;;
76125;SDS011;65174;48.138;21.002;2024-03-22T19:17:11;20.02;;;11.40;;
76125;SDS011;65174;48.138;21.002;2024-03-22T19:20:13;22.17;;;11.85;;
76125;SDS011;65174;48.138;21.002;2024-03-22T19:23:14;19.90;;;11.07;;
76125;SDS011;65174;48.138;21.002;2024-03-22T19:26:16;23.40;;;12.15;;
76125;SDS011;65174;48.138;21.002;2024-03-22T19:29:17;23.92;;;12.40;;
76125;SDS011;65174;48.138;21.002;2024-03-22T19:32:19;22.52;;;11.40;;
76125;SDS011;65174;48.138;21.002;2024-03-22T19:35:20;23.77;;;12.38;;
76125;SDS011;65174;48.138;21.002;2024-03-22T19:38:21;24.30;;;11.97;;
76125;SDS011;65174;48.138;21.002;2024-03-22T19:41:24;23.77;;;12.95;;
76125;SDS011;65174;48.138;21.002;2024-03-22T19:44:25;20.15;;;10.73;;
76125;SDS011;65174;48.138;21.002;2024-03-22T19:47:26;23.98;;;11.70;;
76125;SDS011;65174;48.138;21.002;2024-03-22T19:50:28;22.05;;;11.88;;
76125;SDS011;65174;48.138;21.002;2024-03-22T19:53:28;25.70;;;12.47;;
76125;SDS011;65174;48.138;21.002;2024-03-22T19:56:30;22.65;;;11.48;;
76125;SDS011;65174;48.138;21.002;2024-03-22T19:59:31;22.92;;;11.98;;
76125;SDS011;65174;48.138;21.002;2024-03-22T20:02:33;24.17;;;11.40;;
76125;SDS011;65174;48.138;21.002;2024-03-22T20:05:35;23.05;;;12.82;;
76125;SDS011;65174;48.138;21.002;2024-03-22T20:08:36;21.53;;;11.93;;
76125;SDS011;65174;48.138;21.002;2024-03-22T20:11:37;27.08;;;12.05;;
76125;SDS011;65174;48.138;21.002;2024-03-22T20:14:38;23.55;;;12.95;;
76125;SDS011;65174;48.138;21.002;2024-03-22T20:17:40;23.83;;;12.35;;
76125;SDS011;65174;48.138;21.002;2024-03-22T20:20:42;24.65;;;11.98;;
76125;SDS011;65174;48.138;21.002;2024-03-22T20:23:47;23.80;;;11.93;;
76125;SDS011;65174;48.138;21.002;2024-03-22T20:26:47;22.98;;;11.77;;
76125;SDS011;65174;48.138;21.002;2024-03-22T20:29:49;21.63;;;11.20;;
76125;SDS011;65174;48.138;21.002;2024-03-22T20:32:51;27.60;;;12.88;;
76125;SDS011;65174;48.138;21.002;2024-03-22T20:35:52;21.40;;;11.90;;
